Terminal Aerodrome Forecast
Issued by NWS

Home | Current Version | Previous Version | Graphics & Text | Print | Product List | Glossary On
Versions: 1 2 3 4 5 6 7 8 9 10 11 12 13 14 15 16 17 18 19 20 21 22 23 24 25 26 27 28 29 30 31 32 33 34 35 36 37 38 39 40 41 42 43 44
000
FTUS43 KGRB 211935 AAA
TAFATW
TAF AMD
KATW 211935Z 2120/2218 06005KT 3SM BR SCT006 BKN120
     FM220000 05005KT 2SM BR OVC006
     FM220600 04011G19KT 2SM -RA BR OVC006
     FM221100 04014G24KT 1SM -RASN BR OVC004
     FM221500 04018G28KT 3SM -RA BR OVC006=

USA.gov is the U.S. government's official web portal to all federal, state and local government web resources and services.